createdAt,value
2022-08-27T13:59:41.953Z,217.00
2022-08-27T14:00:37.518Z,225.00
2022-08-27T14:01:37.649Z,222.00
2022-08-27T14:02:37.709Z,217.00
2022-08-27T14:03:37.525Z,213.00
2022-08-27T14:04:37.485Z,210.00
2022-08-27T14:05:37.493Z,205.00
2022-08-27T14:06:37.505Z,207.00
2022-08-27T14:07:37.471Z,211.00
2022-08-27T14:08:37.449Z,216.00
2022-08-27T14:09:37.452Z,225.00
2022-08-27T14:10:37.429Z,225.00
2022-08-27T14:11:37.421Z,231.00
2022-08-27T14:12:37.430Z,239.00
2022-08-27T14:13:37.417Z,246.00
2022-08-27T14:14:37.429Z,250.00
2022-08-27T14:15:37.469Z,247.00
2022-08-27T14:16:37.374Z,242.00
2022-08-27T14:17:37.407Z,246.00
2022-08-27T14:18:58.012Z,256.00
2022-08-27T14:19:37.363Z,265.00
2022-08-27T14:20:37.339Z,269.00
2022-08-27T14:21:37.357Z,272.00
2022-08-27T14:22:37.316Z,269.00
2022-08-27T14:23:37.330Z,268.00
2022-08-27T14:24:37.302Z,270.00
2022-08-27T14:25:37.309Z,272.00
2022-08-27T14:26:37.278Z,274.00
2022-08-27T14:27:37.321Z,265.00
2022-08-27T14:28:37.273Z,268.00
2022-08-27T14:29:37.263Z,276.00
2022-08-27T14:30:37.263Z,275.00
2022-08-27T14:31:37.329Z,272.00
2022-08-27T14:32:37.253Z,263.00
2022-08-27T14:33:37.255Z,253.00
2022-08-27T14:34:37.208Z,231.00
2022-08-27T14:35:40.617Z,206.00
2022-08-27T14:36:55.125Z,283.00
2022-08-27T14:39:58.342Z,289.00
2022-08-27T14:40:50.459Z,292.00
2022-08-27T14:41:50.433Z,298.00
2022-08-27T14:42:51.076Z,308.00
2022-08-27T14:43:50.508Z,313.00
2022-08-27T14:44:50.407Z,318.00
2022-08-27T14:45:58.726Z,311.00
2022-08-27T14:48:51.703Z,298.00
2022-08-27T14:49:45.386Z,299.00
2022-08-27T14:50:47.164Z,299.00
2022-08-27T14:56:34.303Z,226.00
2022-08-27T14:56:49.216Z,230.00
2022-08-27T14:57:49.206Z,218.00
2022-08-27T14:58:49.214Z,208.00
2022-08-27T14:59:49.190Z,201.00
2022-08-27T15:00:49.230Z,208.00
2022-08-27T15:01:49.281Z,221.00
2022-08-27T15:02:49.176Z,226.00
2022-08-27T15:03:49.194Z,223.00
2022-08-27T15:04:49.268Z,226.00
2022-08-27T15:05:50.097Z,239.00
